KCBM/CBM METAR and TAF weather

Enter ICAO airport designator
Station Type Date Time Source
KCBM METAR 2020/09/23 01:56 UTC NOAA

KCBM 230156Z AUTO 15004KT 10SM FEW034 BKN100 20/14 A3009 RMK AO2 SLP191 T02010144 $


Station Type Date Time Source
KCBM Decoded METAR 2020/09/23 01:56 UTC NOAA

Columbus Air Force Base, MS, United States (KCBM) 33-39N 088-27W
Sep 22, 2020 - 09:56 PM EDT / 2020.09.23 0156 UTC
Wind: from the SSE (150 degrees) at 5 MPH (4 KT):0
Visibility: 10 mile(s):0
Sky conditions: mostly cloudy
Temperature: 68.2 F (20.1 C)
Dew Point: 57.9 F (14.4 C)
Relative Humidity: 69%
Pressure (altimeter): 30.09 in. Hg (1018 hPa)
ob: KCBM 230156Z AUTO 15004KT 10SM FEW034 BKN100 20/14 A3009 RMK AO2 SLP191 T02010144
cycle: 2

Station Type Date Time Source
KCBM TAF 2020/09/23 00:44 UTC NOAA

TAF
AMD KCBM 230025Z 2300/2323 VRB06KT 9999 BKN120 QNH3012INS
BECMG 2305/2306 09006KT 9999 BKN020 OVC060 QNH3002INS
BECMG 2312/2313 VRB06KT 8000 -SHRA BKN015 OVC030 QNH3000INS
BECMG 2315/2316 07006KT 8000 -SHRA BKN030 OVC070 QNH2999INS
BECMG 2318/2319 08006KT 8000 -SHRA BKN035 OVC080 QNH2996INS TX23/2317Z TN16/2312Z LAST NO
AMDS AFT 2300 NEXT 2309

Example: see airport list